createdAt,value
2019-03-21T00:01:37.655Z,7.60
2019-03-21T00:04:15.928Z,7.60
2019-03-21T00:06:45.639Z,7.60
2019-03-21T00:09:21.481Z,7.60
2019-03-21T00:12:08.876Z,7.50
2019-03-21T00:14:52.287Z,7.50
2019-03-21T00:17:35.408Z,7.50
2019-03-21T00:20:15.054Z,7.50
2019-03-21T00:22:44.776Z,7.50
2019-03-21T00:25:21.361Z,7.50
2019-03-21T00:27:51.167Z,7.40
2019-03-21T00:30:26.372Z,7.40
2019-03-21T00:32:57.535Z,7.40
2019-03-21T00:35:27.247Z,7.50
2019-03-21T00:37:56.991Z,7.40
2019-03-21T00:40:30.832Z,7.40
2019-03-21T00:43:04.094Z,7.40
2019-03-21T00:45:33.834Z,7.40
2019-03-21T00:48:05.899Z,7.40
2019-03-21T00:50:35.599Z,7.40
2019-03-21T00:53:10.432Z,7.40
2019-03-21T00:55:47.858Z,7.40
2019-03-21T00:58:17.523Z,7.40
2019-03-21T01:01:03.761Z,7.40
2019-03-21T01:03:33.563Z,7.40
2019-03-21T01:06:03.292Z,7.30
2019-03-21T01:08:32.972Z,7.30
2019-03-21T01:11:02.738Z,7.30
2019-03-21T01:13:38.888Z,7.30
2019-03-21T01:16:08.694Z,7.30
2019-03-21T01:18:44.924Z,7.30
2019-03-21T01:21:14.779Z,7.30
2019-03-21T01:23:44.674Z,7.30
2019-03-21T01:26:15.779Z,7.30
2019-03-21T01:28:45.538Z,7.20
2019-03-21T01:31:15.194Z,7.20
2019-03-21T01:33:44.890Z,7.20
2019-03-21T01:36:14.658Z,7.20
2019-03-21T01:38:44.384Z,7.20
2019-03-21T01:41:19.874Z,7.20
2019-03-21T01:43:49.570Z,7.20
2019-03-21T01:46:27.279Z,7.10
2019-03-21T01:48:57.137Z,7.10
2019-03-21T01:51:26.839Z,7.10
2019-03-21T01:53:56.998Z,7.10
2019-03-21T01:56:29.363Z,7.10
2019-03-21T01:58:59.169Z,7.10
2019-03-21T02:01:29.120Z,7.10
2019-03-21T02:03:58.812Z,7.10
2019-03-21T02:06:28.564Z,7.10
2019-03-21T02:08:58.286Z,7.10
2019-03-21T02:11:27.943Z,7.10
2019-03-21T02:13:57.631Z,7.10
2019-03-21T02:16:27.289Z,7.00
2019-03-21T02:18:57.033Z,7.00
2019-03-21T02:21:26.715Z,7.00
2019-03-21T02:23:56.424Z,7.00
2019-03-21T02:26:26.113Z,7.00
2019-03-21T02:28:55.776Z,7.00
2019-03-21T02:31:25.483Z,7.00
2019-03-21T02:33:55.157Z,7.00
2019-03-21T02:36:24.912Z,7.00
2019-03-21T02:38:54.585Z,6.90
2019-03-21T02:41:25.835Z,6.90
2019-03-21T02:43:55.606Z,6.90
2019-03-21T02:46:25.272Z,6.90
2019-03-21T02:48:55.041Z,6.90
2019-03-21T02:51:24.687Z,6.90
2019-03-21T02:53:54.390Z,6.90
2019-03-21T02:56:26.568Z,6.90
2019-03-21T02:58:56.854Z,6.80
2019-03-21T03:01:26.529Z,6.80
2019-03-21T03:03:56.909Z,6.80
2019-03-21T03:06:26.634Z,6.80
2019-03-21T03:08:56.308Z,6.80
2019-03-21T03:11:26.838Z,6.80
2019-03-21T03:13:56.681Z,6.70
2019-03-21T03:16:26.383Z,6.70
2019-03-21T03:18:56.052Z,6.70
2019-03-21T03:21:25.696Z,6.70
2019-03-21T03:23:55.470Z,6.70
2019-03-21T03:26:25.125Z,6.70
2019-03-21T03:28:54.854Z,6.70
2019-03-21T03:31:24.747Z,6.70
2019-03-21T03:33:54.559Z,6.60
2019-03-21T03:36:24.200Z,6.60
2019-03-21T03:38:53.873Z,6.60
2019-03-21T03:41:23.709Z,6.60
2019-03-21T03:43:53.482Z,6.60
2019-03-21T03:46:23.232Z,6.60
2019-03-21T03:48:52.918Z,6.60
2019-03-21T03:51:22.633Z,6.50
2019-03-21T03:53:52.386Z,6.50
2019-03-21T03:56:22.362Z,6.60
2019-03-21T03:59:05.850Z,6.50
2019-03-21T04:01:35.631Z,6.50
2019-03-21T04:04:05.496Z,6.50
2019-03-21T04:06:35.373Z,6.50
2019-03-21T04:09:08.024Z,6.50
2019-03-21T04:11:38.176Z,6.50
2019-03-21T04:14:07.878Z,6.40
2019-03-21T04:16:37.662Z,6.40
2019-03-21T04:19:07.294Z,6.40
2019-03-21T04:21:37.008Z,6.40
2019-03-21T04:24:06.783Z,6.40
2019-03-21T04:26:39.165Z,6.40
2019-03-21T04:29:08.842Z,6.40
2019-03-21T04:31:38.486Z,6.40
2019-03-21T04:34:10.988Z,6.40
2019-03-21T04:36:40.672Z,6.40
2019-03-21T04:39:11.269Z,6.40
2019-03-21T04:41:44.366Z,6.40
2019-03-21T04:44:14.138Z,6.40
2019-03-21T04:46:43.902Z,6.30
2019-03-21T04:49:13.563Z,6.30
2019-03-21T04:51:43.493Z,6.30
2019-03-21T04:54:13.172Z,6.30
2019-03-21T04:56:42.858Z,6.30
2019-03-21T04:59:12.603Z,6.30
2019-03-21T05:01:42.271Z,6.20
2019-03-21T05:04:12.046Z,6.20
2019-03-21T05:06:41.694Z,6.20
2019-03-21T05:09:14.709Z,6.20
2019-03-21T05:11:44.352Z,6.20
2019-03-21T05:14:14.041Z,6.20
2019-03-21T05:16:43.725Z,6.20
2019-03-21T05:19:13.404Z,6.20
2019-03-21T05:21:43.069Z,6.20
2019-03-21T05:24:12.750Z,6.20
2019-03-21T05:26:42.496Z,6.20
2019-03-21T05:29:12.218Z,6.20
2019-03-21T05:31:41.887Z,6.20
2019-03-21T05:34:11.683Z,6.20
2019-03-21T05:36:41.670Z,6.20
2019-03-21T05:39:12.741Z,6.20
2019-03-21T05:41:42.496Z,6.20
2019-03-21T05:44:22.754Z,6.20
2019-03-21T05:46:52.391Z,6.20
2019-03-21T05:49:22.511Z,6.30
2019-03-21T05:51:52.209Z,6.30
2019-03-21T05:54:21.924Z,6.30
2019-03-21T05:56:51.584Z,6.30
2019-03-21T05:59:21.355Z,6.40
2019-03-21T06:01:51.070Z,6.40
2019-03-21T06:04:20.763Z,6.40
2019-03-21T06:07:12.446Z,6.50
2019-03-21T06:09:42.314Z,6.50
2019-03-21T06:12:11.987Z,6.50
2019-03-21T06:14:48.801Z,6.50
2019-03-21T06:17:18.523Z,6.50
2019-03-21T06:20:03.914Z,6.60
2019-03-21T06:22:43.029Z,6.60
2019-03-21T06:25:34.321Z,6.70
2019-03-21T06:28:04.047Z,6.80
2019-03-21T06:30:33.847Z,6.90
2019-03-21T06:33:03.562Z,7.00
2019-03-21T06:35:33.254Z,7.10
2019-03-21T06:38:03.057Z,7.20
2019-03-21T06:40:32.865Z,7.30
2019-03-21T06:43:02.638Z,7.30
2019-03-21T06:45:32.343Z,7.40
2019-03-21T06:48:02.042Z,7.50
2019-03-21T06:50:31.739Z,7.50
2019-03-21T06:53:03.300Z,7.50
2019-03-21T06:55:32.856Z,7.60
2019-03-21T06:58:02.503Z,7.60
2019-03-21T07:00:32.233Z,7.70
2019-03-21T07:03:01.887Z,7.70
2019-03-21T07:05:31.546Z,7.80
2019-03-21T07:08:01.484Z,7.90
2019-03-21T07:10:31.161Z,8.00
2019-03-21T07:13:00.850Z,8.10
2019-03-21T07:15:30.512Z,8.10
2019-03-21T07:18:00.243Z,8.20
2019-03-21T07:20:29.988Z,8.40
2019-03-21T07:22:59.729Z,8.50
2019-03-21T07:25:29.393Z,8.60
2019-03-21T07:27:59.149Z,8.70
2019-03-21T07:30:28.942Z,8.80
2019-03-21T07:32:58.736Z,8.90
2019-03-21T07:35:28.373Z,8.80
2019-03-21T07:37:58.149Z,9.00
2019-03-21T07:40:27.823Z,9.10
2019-03-21T07:42:57.556Z,9.20
2019-03-21T07:45:27.310Z,9.20
2019-03-21T07:47:57.064Z,9.30
2019-03-21T07:50:26.761Z,9.30
2019-03-21T07:52:56.522Z,9.30
2019-03-21T07:55:26.262Z,9.40
2019-03-21T07:57:55.988Z,9.50
2019-03-21T08:00:25.793Z,9.60
2019-03-21T08:02:55.632Z,9.60
2019-03-21T08:05:25.330Z,9.70
2019-03-21T08:07:55.012Z,9.80
2019-03-21T08:10:24.754Z,9.90
2019-03-21T08:12:54.462Z,10.00
2019-03-21T08:15:24.146Z,10.10
2019-03-21T08:17:53.963Z,10.10
2019-03-21T08:20:23.683Z,10.10
2019-03-21T08:22:53.375Z,10.20
2019-03-21T08:25:23.073Z,10.30
2019-03-21T08:27:52.812Z,10.30
2019-03-21T08:30:29.678Z,10.40
2019-03-21T08:32:59.388Z,10.40
2019-03-21T08:35:29.059Z,10.50
2019-03-21T08:37:59.523Z,10.60
2019-03-21T08:40:29.309Z,10.70
2019-03-21T08:42:59.098Z,10.80
2019-03-21T08:45:28.748Z,10.80
2019-03-21T08:47:58.446Z,10.90
2019-03-21T08:50:28.486Z,11.00
2019-03-21T08:52:58.230Z,11.10
2019-03-21T08:55:27.885Z,11.10
2019-03-21T08:57:57.611Z,11.20
2019-03-21T09:00:34.091Z,11.20
2019-03-21T09:02:58.801Z,11.30
2019-03-21T09:05:28.769Z,11.30
2019-03-21T09:07:58.509Z,11.40
2019-03-21T09:10:28.159Z,11.50
2019-03-21T09:12:57.859Z,11.40
2019-03-21T09:15:27.892Z,11.50
2019-03-21T09:17:57.588Z,11.50
2019-03-21T09:20:27.271Z,11.60
2019-03-21T09:22:56.939Z,11.70
2019-03-21T09:25:26.728Z,11.80
2019-03-21T09:28:02.481Z,11.80
2019-03-21T09:30:27.807Z,11.90
2019-03-21T09:32:57.527Z,12.00
2019-03-21T09:35:27.734Z,12.10
2019-03-21T09:37:57.513Z,12.10
2019-03-21T09:40:27.154Z,12.10
2019-03-21T09:42:56.886Z,12.20
2019-03-21T09:45:26.573Z,12.20
2019-03-21T09:47:56.254Z,12.30
2019-03-21T09:50:32.958Z,12.30
2019-03-21T09:53:02.787Z,12.30
2019-03-21T09:55:32.507Z,12.40
2019-03-21T09:58:02.164Z,12.50
2019-03-21T10:00:38.447Z,12.60
2019-03-21T10:03:08.199Z,12.60
2019-03-21T10:05:38.224Z,12.60
2019-03-21T10:08:08.210Z,12.70
2019-03-21T10:10:38.285Z,12.70
2019-03-21T10:13:08.168Z,12.80
2019-03-21T10:15:38.124Z,12.90
2019-03-21T10:18:07.996Z,12.90
2019-03-21T10:20:37.730Z,12.80
2019-03-21T10:23:07.486Z,13.00
2019-03-21T10:25:37.417Z,13.00
2019-03-21T10:28:07.351Z,13.00
2019-03-21T10:30:42.842Z,13.00
2019-03-21T10:33:14.469Z,13.10
2019-03-21T10:35:44.412Z,13.10
2019-03-21T10:38:15.075Z,13.10
2019-03-21T10:40:44.996Z,13.10
2019-03-21T10:43:14.692Z,13.10
2019-03-21T10:45:44.412Z,13.10
2019-03-21T10:48:14.196Z,13.20
2019-03-21T10:50:44.009Z,13.30
2019-03-21T10:53:13.825Z,13.40
2019-03-21T10:55:43.622Z,13.50
2019-03-21T10:58:13.318Z,13.50
2019-03-21T11:00:43.114Z,13.50
2019-03-21T11:03:12.977Z,13.50
2019-03-21T11:05:42.968Z,13.50
2019-03-21T11:08:12.800Z,13.50
2019-03-21T11:10:42.567Z,13.50
2019-03-21T11:13:12.355Z,13.50
2019-03-21T11:15:42.191Z,13.50
2019-03-21T11:18:11.982Z,13.50
2019-03-21T11:20:42.621Z,13.50
2019-03-21T11:23:12.311Z,13.50
2019-03-21T11:25:42.139Z,13.60
2019-03-21T11:28:12.026Z,13.70
2019-03-21T11:30:43.622Z,13.80
2019-03-21T11:33:13.371Z,13.80
2019-03-21T11:35:43.285Z,13.80
2019-03-21T11:38:13.093Z,13.80
2019-03-21T11:40:43.002Z,13.80
2019-03-21T11:43:12.781Z,13.80
2019-03-21T11:45:42.625Z,13.90
2019-03-21T11:48:12.337Z,13.90
2019-03-21T11:50:42.153Z,14.00
2019-03-21T11:53:12.054Z,14.00
2019-03-21T11:55:41.779Z,14.00
2019-03-21T11:58:11.581Z,14.00
2019-03-21T12:00:43.951Z,14.00
2019-03-21T12:03:13.370Z,14.00
2019-03-21T12:05:43.137Z,13.90
2019-03-21T12:08:12.855Z,14.10
2019-03-21T12:10:42.577Z,14.20
2019-03-21T12:13:12.295Z,14.10
2019-03-21T12:15:42.165Z,14.10
2019-03-21T12:18:11.917Z,14.10
2019-03-21T12:20:41.757Z,14.10
2019-03-21T12:23:11.434Z,14.10
2019-03-21T12:25:41.117Z,14.00
2019-03-21T12:28:10.911Z,14.00
2019-03-21T12:30:41.930Z,14.10
2019-03-21T12:33:11.838Z,14.20
2019-03-21T12:35:41.623Z,14.10
2019-03-21T12:38:11.577Z,14.10
2019-03-21T12:40:41.326Z,14.20
2019-03-21T12:43:11.084Z,14.30
2019-03-21T12:45:40.755Z,14.20
2019-03-21T12:48:10.470Z,14.20
2019-03-21T12:50:40.503Z,14.30
2019-03-21T12:53:10.237Z,14.40
2019-03-21T12:55:40.042Z,14.40
2019-03-21T12:58:09.726Z,14.50
2019-03-21T13:00:41.284Z,14.60
2019-03-21T13:03:12.173Z,14.80
2019-03-21T13:05:42.659Z,14.90
2019-03-21T13:08:12.825Z,15.10
2019-03-21T13:10:42.723Z,15.20
2019-03-21T13:13:12.732Z,15.40
2019-03-21T13:15:42.442Z,15.40
2019-03-21T13:18:12.274Z,15.50
2019-03-21T13:20:42.391Z,15.70
2019-03-21T13:23:12.214Z,15.70
2019-03-21T13:25:42.000Z,15.80
2019-03-21T13:28:11.767Z,15.90
2019-03-21T13:30:41.485Z,15.90
2019-03-21T13:33:11.199Z,16.00
2019-03-21T13:35:40.877Z,16.10
2019-03-21T13:38:11.012Z,16.00
2019-03-21T13:40:40.716Z,16.00
2019-03-21T13:43:11.384Z,16.00
2019-03-21T13:45:41.202Z,16.20
2019-03-21T13:48:11.247Z,16.20
2019-03-21T13:50:40.923Z,16.30
2019-03-21T13:53:18.590Z,16.30
2019-03-21T13:55:42.109Z,16.20
2019-03-21T13:58:11.867Z,16.30
2019-03-21T14:00:41.626Z,16.50
2019-03-21T14:03:11.374Z,16.60
2019-03-21T14:05:41.060Z,16.60
2019-03-21T14:08:10.739Z,16.70
2019-03-21T14:10:40.857Z,16.90
2019-03-21T14:13:10.563Z,17.10
2019-03-21T14:15:40.704Z,17.20
2019-03-21T14:18:10.374Z,17.20
2019-03-21T14:20:40.171Z,17.00
2019-03-21T14:23:16.900Z,16.90
2019-03-21T14:25:41.249Z,17.10
2019-03-21T14:28:10.897Z,17.30
2019-03-21T14:30:40.589Z,17.60
2019-03-21T14:33:10.341Z,17.80
2019-03-21T14:35:40.113Z,18.00
2019-03-21T14:38:09.805Z,17.80
2019-03-21T14:40:39.522Z,17.80
2019-03-21T14:43:09.408Z,17.90
2019-03-21T14:45:39.085Z,17.80
2019-03-21T14:48:08.802Z,18.00
2019-03-21T14:50:38.711Z,18.20
2019-03-21T14:53:08.547Z,18.20
2019-03-21T14:55:47.088Z,18.10
2019-03-21T14:58:09.690Z,18.10
2019-03-21T15:00:39.417Z,18.10
2019-03-21T15:03:09.151Z,17.80
2019-03-21T15:05:39.106Z,17.60
2019-03-21T15:08:08.915Z,17.30
2019-03-21T15:10:38.771Z,16.90
2019-03-21T15:13:08.452Z,16.60
2019-03-21T15:15:38.213Z,16.30
2019-03-21T15:18:07.881Z,16.00
2019-03-21T15:20:37.596Z,15.90
2019-03-21T15:23:07.393Z,15.90
2019-03-21T15:25:37.468Z,15.80
2019-03-21T15:28:07.278Z,15.80
2019-03-21T15:30:36.936Z,15.80
2019-03-21T15:33:06.645Z,15.70
2019-03-21T15:35:36.316Z,15.90
2019-03-21T15:38:06.125Z,15.90
2019-03-21T15:40:35.891Z,15.90
2019-03-21T15:43:05.711Z,15.90
2019-03-21T15:45:35.461Z,15.90
2019-03-21T15:48:05.302Z,15.80
2019-03-21T15:50:38.634Z,15.80
2019-03-21T15:53:08.954Z,15.80
2019-03-21T15:55:38.709Z,15.70
2019-03-21T15:58:08.409Z,15.60
2019-03-21T16:00:43.200Z,15.60
2019-03-21T16:03:13.914Z,15.60
2019-03-21T16:05:43.625Z,15.50
2019-03-21T16:08:13.348Z,15.50
2019-03-21T16:10:43.228Z,15.50
2019-03-21T16:13:13.012Z,15.50
2019-03-21T16:15:42.693Z,15.50
2019-03-21T16:18:12.428Z,15.40
2019-03-21T16:20:42.220Z,15.30
2019-03-21T16:23:11.928Z,15.30
2019-03-21T16:25:41.764Z,15.20
2019-03-21T16:28:11.492Z,15.10
2019-03-21T16:30:41.276Z,15.20
2019-03-21T16:33:11.036Z,15.10
2019-03-21T16:35:40.868Z,15.20
2019-03-21T16:38:10.753Z,15.30
2019-03-21T16:40:40.531Z,15.30
2019-03-21T16:43:10.246Z,15.50
2019-03-21T16:45:40.123Z,15.40
2019-03-21T16:48:09.780Z,15.40
2019-03-21T16:50:39.901Z,15.50
2019-03-21T16:53:09.674Z,15.50
2019-03-21T16:55:40.465Z,15.40
2019-03-21T16:58:10.440Z,15.40
2019-03-21T17:00:40.116Z,15.30
2019-03-21T17:03:09.899Z,15.40
2019-03-21T17:05:39.577Z,15.50
2019-03-21T17:08:11.618Z,15.50
2019-03-21T17:10:40.803Z,15.50
2019-03-21T17:13:10.618Z,15.40
2019-03-21T17:15:40.321Z,15.40
2019-03-21T17:18:10.338Z,15.40
2019-03-21T17:20:40.005Z,15.40
2019-03-21T17:23:09.675Z,15.30
2019-03-21T17:25:39.535Z,15.20
2019-03-21T17:28:09.269Z,15.20
2019-03-21T17:30:38.971Z,15.20
2019-03-21T17:33:08.622Z,15.20
2019-03-21T17:35:38.317Z,15.20
2019-03-21T17:38:07.972Z,15.20
2019-03-21T17:40:37.706Z,15.10
2019-03-21T17:43:07.725Z,15.10
2019-03-21T17:45:37.572Z,15.10
2019-03-21T17:48:07.322Z,15.00
2019-03-21T17:50:37.115Z,15.00
2019-03-21T17:53:06.844Z,15.00
2019-03-21T17:55:36.554Z,15.00
2019-03-21T17:58:06.402Z,15.00
2019-03-21T18:00:37.181Z,14.90
2019-03-21T18:03:07.311Z,14.90
2019-03-21T18:05:37.038Z,14.80
2019-03-21T18:08:06.739Z,14.70
2019-03-21T18:10:36.564Z,14.70
2019-03-21T18:13:06.884Z,14.70
2019-03-21T18:15:36.823Z,14.60
2019-03-21T18:18:06.763Z,14.40
2019-03-21T18:20:36.582Z,14.40
2019-03-21T18:23:06.380Z,14.40
2019-03-21T18:25:36.195Z,14.40
2019-03-21T18:28:08.524Z,14.40
2019-03-21T18:30:37.487Z,14.40
2019-03-21T18:33:07.144Z,14.40
2019-03-21T18:35:37.006Z,14.40
2019-03-21T18:38:06.760Z,14.30
2019-03-21T18:40:36.494Z,14.20
2019-03-21T18:43:06.185Z,14.20
2019-03-21T18:45:36.070Z,14.20
2019-03-21T18:48:05.990Z,14.20
2019-03-21T18:50:35.789Z,14.20
2019-03-21T18:53:05.690Z,14.20
2019-03-21T18:55:35.585Z,14.20
2019-03-21T18:58:05.554Z,14.10
2019-03-21T19:00:35.523Z,14.20
2019-03-21T19:03:05.555Z,14.20
2019-03-21T19:05:35.289Z,14.10
2019-03-21T19:08:05.180Z,14.10
2019-03-21T19:10:35.174Z,14.00
2019-03-21T19:13:05.187Z,14.00
2019-03-21T19:15:34.939Z,13.90
2019-03-21T19:18:04.880Z,14.00
2019-03-21T19:20:34.594Z,14.00
2019-03-21T19:23:04.394Z,13.80
2019-03-21T19:25:34.136Z,13.80
2019-03-21T19:28:03.987Z,13.90
2019-03-21T19:30:33.757Z,13.80
2019-03-21T19:33:03.572Z,13.80
2019-03-21T19:35:33.328Z,13.70
2019-03-21T19:38:03.127Z,13.60
2019-03-21T19:40:32.873Z,13.60
2019-03-21T19:43:02.648Z,13.60
2019-03-21T19:45:32.336Z,13.60
2019-03-21T19:48:02.052Z,13.50
2019-03-21T19:50:31.808Z,13.60
2019-03-21T19:53:01.921Z,13.50
2019-03-21T19:55:31.685Z,13.40
2019-03-21T19:58:01.382Z,13.40
2019-03-21T20:00:31.217Z,13.40
2019-03-21T20:03:01.128Z,13.30
2019-03-21T20:05:31.224Z,13.30
2019-03-21T20:08:01.100Z,13.30
2019-03-21T20:10:30.906Z,13.30
2019-03-21T20:13:00.614Z,13.20
2019-03-21T20:15:30.383Z,13.20
2019-03-21T20:18:00.103Z,13.20
2019-03-21T20:20:31.026Z,13.20
2019-03-21T20:23:00.981Z,13.20
2019-03-21T20:25:41.946Z,13.10
2019-03-21T20:28:02.158Z,13.10
2019-03-21T20:30:31.886Z,13.10
2019-03-21T20:33:01.683Z,13.00
2019-03-21T20:35:31.486Z,13.00
2019-03-21T20:38:01.386Z,12.80
2019-03-21T20:40:31.066Z,12.60
2019-03-21T20:43:00.779Z,12.50
2019-03-21T20:45:30.486Z,12.60
2019-03-21T20:48:00.190Z,12.40
2019-03-21T20:50:29.873Z,12.40
2019-03-21T20:53:00.065Z,12.50
2019-03-21T20:55:29.776Z,12.50
2019-03-21T20:57:59.482Z,12.40
2019-03-21T21:00:29.514Z,12.40
2019-03-21T21:02:59.237Z,12.30
2019-03-21T21:05:28.999Z,12.20
2019-03-21T21:07:58.692Z,12.20
2019-03-21T21:10:28.372Z,12.20
2019-03-21T21:12:58.111Z,12.20
2019-03-21T21:15:27.929Z,12.30
2019-03-21T21:17:57.665Z,12.30
2019-03-21T21:20:27.441Z,12.20
2019-03-21T21:22:57.469Z,12.20
2019-03-21T21:25:27.156Z,12.10
2019-03-21T21:27:56.854Z,12.00
2019-03-21T21:30:26.702Z,11.90
2019-03-21T21:32:56.736Z,11.90
2019-03-21T21:35:26.493Z,11.90
2019-03-21T21:37:56.205Z,11.90
2019-03-21T21:40:25.931Z,11.80
2019-03-21T21:42:55.675Z,11.70
2019-03-21T21:45:25.393Z,11.60
2019-03-21T21:47:55.130Z,11.70
2019-03-21T21:50:24.873Z,11.60
2019-03-21T21:52:54.550Z,11.50
2019-03-21T21:55:24.239Z,11.50
2019-03-21T21:57:54.079Z,11.70
2019-03-21T22:00:24.033Z,11.80
2019-03-21T22:02:53.811Z,11.90
2019-03-21T22:05:23.494Z,11.90
2019-03-21T22:07:53.228Z,11.90
2019-03-21T22:10:22.917Z,11.90
2019-03-21T22:12:52.651Z,11.90
2019-03-21T22:15:22.377Z,11.80
2019-03-21T22:17:52.139Z,11.80
2019-03-21T22:20:21.865Z,11.70
2019-03-21T22:22:51.574Z,11.70
2019-03-21T22:25:21.231Z,11.70
2019-03-21T22:27:51.083Z,11.70
2019-03-21T22:30:21.177Z,11.70
2019-03-21T22:32:51.040Z,11.70
2019-03-21T22:35:20.857Z,11.70
2019-03-21T22:37:50.684Z,11.70
2019-03-21T22:40:21.518Z,11.70
2019-03-21T22:42:51.173Z,11.60
2019-03-21T22:45:20.947Z,11.50
2019-03-21T22:47:50.961Z,11.40
2019-03-21T22:50:20.786Z,11.30
2019-03-21T22:52:50.526Z,11.30
2019-03-21T22:55:20.227Z,11.30
2019-03-21T22:57:49.980Z,11.40
2019-03-21T23:00:23.517Z,11.40
2019-03-21T23:02:53.321Z,11.40
2019-03-21T23:05:23.188Z,11.40
2019-03-21T23:07:52.993Z,11.30
2019-03-21T23:10:23.028Z,11.30
2019-03-21T23:12:52.706Z,11.20
2019-03-21T23:15:22.536Z,11.30
2019-03-21T23:17:52.207Z,11.20
2019-03-21T23:20:22.073Z,11.20
2019-03-21T23:22:51.800Z,11.20
2019-03-21T23:25:21.515Z,11.20
2019-03-21T23:27:51.372Z,11.10
2019-03-21T23:30:21.278Z,11.10
2019-03-21T23:32:50.929Z,11.00
2019-03-21T23:35:20.627Z,11.00
2019-03-21T23:37:50.360Z,10.90
2019-03-21T23:40:20.024Z,10.80
2019-03-21T23:42:49.747Z,10.70
2019-03-21T23:45:20.075Z,10.60
2019-03-21T23:47:50.038Z,10.60
2019-03-21T23:50:19.723Z,10.60
2019-03-21T23:52:49.470Z,10.60
2019-03-21T23:55:19.198Z,10.60
2019-03-21T23:57:49.050Z,10.60
